createdAt,value
2023-11-09T18:22:07.483Z,62.25
2023-11-09T18:23:11.751Z,64.92
2023-11-09T18:24:16.066Z,66.27
2023-11-09T18:25:22.149Z,67.13
2023-11-09T18:26:25.865Z,66.76
2023-11-09T18:27:29.031Z,67.63
2023-11-09T18:28:32.175Z,68.58
2023-11-09T18:29:35.976Z,69.10
2023-11-09T18:31:03.928Z,69.68
2023-11-09T18:32:06.946Z,70.41
2023-11-09T18:33:14.123Z,70.03
2023-11-09T18:34:21.337Z,70.93
2023-11-09T18:35:25.788Z,71.14
2023-11-09T18:36:29.789Z,71.25
2023-11-09T18:38:04.375Z,71.57
2023-11-09T18:39:16.873Z,71.05
2023-11-09T18:40:21.770Z,71.35
2023-11-09T18:41:41.353Z,71.13
2023-11-09T18:42:46.003Z,71.66
2023-11-09T18:43:59.049Z,71.81
2023-11-09T18:45:03.181Z,72.29
2023-11-09T18:46:07.459Z,71.38
2023-11-09T18:47:12.419Z,71.77
2023-11-09T18:48:19.273Z,71.13
2023-11-09T18:51:40.740Z,72.65
2023-11-09T18:52:44.878Z,72.32
2023-11-09T18:53:50.434Z,72.35
2023-11-09T18:55:07.155Z,72.80
2023-11-09T18:56:38.236Z,73.13
2023-11-09T18:57:42.137Z,72.70
2023-11-09T18:58:47.247Z,72.69
2023-11-09T18:59:51.078Z,72.75
2023-11-09T19:00:54.773Z,73.20
2023-11-09T19:02:01.055Z,73.25
2023-11-09T19:05:19.457Z,72.96
2023-11-09T19:06:27.968Z,72.74
2023-11-09T19:07:32.047Z,72.91
2023-11-09T19:08:37.438Z,72.99
2023-11-09T19:09:42.429Z,72.68
2023-11-09T19:10:48.010Z,73.20
2023-11-09T19:11:53.843Z,72.69
2023-11-09T19:13:02.764Z,72.85
2023-11-09T19:14:10.689Z,72.78
2023-11-09T19:15:17.981Z,72.93
2023-11-09T19:16:23.821Z,73.17
2023-11-09T19:17:34.830Z,73.06
2023-11-09T19:18:40.151Z,72.71
2023-11-09T19:19:44.785Z,73.19
2023-11-09T19:23:10.311Z,72.90
2023-11-09T19:24:15.910Z,72.90
2023-11-09T19:25:25.094Z,73.20
2023-11-09T19:26:30.276Z,72.73
2023-11-09T19:27:37.634Z,72.70
2023-11-09T19:28:45.257Z,72.43
2023-11-09T19:29:49.923Z,72.43
2023-11-09T19:31:02.610Z,71.90
2023-11-09T19:32:11.510Z,72.49
2023-11-09T19:33:17.863Z,72.56
2023-11-09T19:34:22.181Z,72.35
2023-11-09T19:35:28.518Z,72.56
2023-11-09T19:36:34.632Z,72.14
2023-11-09T19:37:40.031Z,71.97
2023-11-09T19:38:44.814Z,72.38
2023-11-09T19:39:49.387Z,71.91
2023-11-09T19:40:53.424Z,74.68
2023-11-09T19:41:59.602Z,72.21
2023-11-09T19:43:04.650Z,71.47
2023-11-09T19:44:09.672Z,71.54
2023-11-09T19:45:15.209Z,71.36
2023-11-09T19:46:21.416Z,71.17
2023-11-09T19:47:26.266Z,71.43
2023-11-09T19:48:30.347Z,71.97
2023-11-09T19:49:34.381Z,71.35
2023-11-09T19:50:39.156Z,70.93
2023-11-09T19:51:43.733Z,71.00
2023-11-09T19:52:47.899Z,71.30
2023-11-09T19:53:53.354Z,71.54
2023-11-09T19:54:59.341Z,71.55
2023-11-09T19:56:03.778Z,71.64
2023-11-09T19:57:09.598Z,70.68
2023-11-09T19:58:13.519Z,70.66
2023-11-09T19:59:19.326Z,71.12
2023-11-09T20:00:24.028Z,71.11
2023-11-09T20:01:29.888Z,71.22
2023-11-09T20:02:34.549Z,71.15
2023-11-09T20:03:40.509Z,71.19
2023-11-09T20:04:48.439Z,71.27
2023-11-09T20:05:53.051Z,71.29
2023-11-09T20:06:58.119Z,71.29
2023-11-09T20:08:03.208Z,71.36
2023-11-09T20:09:09.163Z,70.96
2023-11-09T20:10:14.672Z,70.91
2023-11-09T20:11:19.029Z,71.19
2023-11-09T20:12:25.991Z,71.65
2023-11-09T20:13:29.908Z,71.39
2023-11-09T20:14:34.042Z,70.87
2023-11-09T20:15:38.172Z,71.81
2023-11-09T20:16:42.439Z,71.40
2023-11-09T20:17:46.533Z,70.58
2023-11-09T20:18:50.580Z,70.35
2023-11-09T20:19:54.287Z,70.63
2023-11-09T20:20:58.226Z,70.91
2023-11-09T20:22:06.010Z,71.55
2023-11-09T20:23:13.129Z,70.53
2023-11-09T20:24:16.649Z,70.89
2023-11-09T20:25:21.418Z,70.85
2023-11-09T20:26:25.708Z,71.30
2023-11-09T20:27:30.068Z,70.21
2023-11-09T20:28:33.668Z,71.26
2023-11-09T20:29:39.635Z,70.60
2023-11-09T20:30:45.147Z,70.63
2023-11-09T20:31:49.588Z,71.62
2023-11-09T20:32:54.820Z,70.21
2023-11-09T20:33:59.330Z,71.27
2023-11-09T20:35:04.825Z,70.46
2023-11-09T20:36:10.578Z,70.20
2023-11-09T20:37:14.584Z,71.22
2023-11-09T20:38:20.167Z,71.20
2023-11-09T20:39:24.133Z,70.68
2023-11-09T20:40:28.760Z,70.34
2023-11-09T20:41:32.909Z,70.95
2023-11-09T20:42:40.222Z,71.16
2023-11-09T20:43:45.328Z,70.33
2023-11-09T20:44:50.913Z,70.90
2023-11-09T20:45:55.663Z,70.53
2023-11-09T20:46:59.205Z,71.17
2023-11-09T20:48:03.322Z,70.70
2023-11-09T20:49:08.463Z,70.82
2023-11-09T20:50:16.927Z,71.18
2023-11-09T20:51:20.790Z,71.35
2023-11-09T20:52:25.375Z,70.99
2023-11-09T20:53:29.744Z,70.97
2023-11-09T20:54:36.215Z,71.24
2023-11-09T20:55:40.291Z,71.45
2023-11-09T20:56:44.445Z,71.52
2023-11-09T20:57:50.017Z,71.04
2023-11-09T20:58:54.817Z,71.57
2023-11-09T20:59:58.069Z,71.01
2023-11-09T21:01:01.424Z,72.01
2023-11-09T21:02:04.836Z,71.47
2023-11-09T21:03:09.298Z,70.97
2023-11-09T21:04:12.271Z,71.22
2023-11-09T21:05:15.577Z,72.18
2023-11-09T21:06:18.446Z,71.36
2023-11-09T21:07:21.743Z,71.71
2023-11-09T21:08:24.778Z,71.38
2023-11-09T21:09:30.278Z,72.07
2023-11-09T21:10:33.748Z,72.30
2023-11-09T21:11:36.532Z,72.82
2023-11-09T21:12:43.050Z,71.60
2023-11-09T21:13:46.329Z,72.38
2023-11-09T21:14:49.779Z,71.50
2023-11-09T21:15:52.791Z,72.23
2023-11-09T21:16:55.553Z,71.69
2023-11-09T21:18:00.394Z,72.17
2023-11-09T21:19:05.130Z,71.88
2023-11-09T21:20:08.834Z,71.78
2023-11-09T21:21:11.874Z,71.91
2023-11-09T21:22:15.037Z,71.35
2023-11-09T21:23:18.284Z,71.36
2023-11-09T21:24:24.956Z,72.21
2023-11-09T21:25:30.309Z,72.04
2023-11-09T21:26:33.954Z,72.05
2023-11-09T21:27:38.546Z,71.45
2023-11-09T21:28:41.477Z,72.11
2023-11-09T21:29:44.610Z,72.66
2023-11-09T21:30:47.482Z,72.23
2023-11-09T21:31:50.252Z,72.75
2023-11-09T21:32:53.064Z,71.66
2023-11-09T21:33:57.572Z,72.42
2023-11-09T21:35:03.285Z,71.58
2023-11-09T21:36:15.002Z,72.41
2023-11-09T21:37:20.029Z,71.81
2023-11-09T21:38:22.798Z,72.23
2023-11-09T21:39:25.553Z,71.36
2023-11-09T21:40:28.910Z,71.97
2023-11-09T21:41:31.776Z,71.83
2023-11-09T21:42:34.548Z,72.76
2023-11-09T21:43:37.320Z,72.59
2023-11-09T21:44:41.233Z,71.94
2023-11-09T21:45:45.287Z,72.18
2023-11-09T21:46:48.102Z,72.77
2023-11-09T21:47:52.692Z,72.34
2023-11-09T21:48:56.859Z,72.29
2023-11-09T21:50:02.488Z,72.27
2023-11-09T21:51:05.952Z,72.90
2023-11-09T21:52:08.786Z,72.89
2023-11-09T21:53:14.207Z,72.36
2023-11-09T21:54:18.088Z,72.46
2023-11-09T21:55:23.608Z,72.72
2023-11-09T21:56:27.512Z,72.58
2023-11-09T21:57:30.404Z,73.03
2023-11-09T21:58:33.964Z,72.78
2023-11-09T21:59:37.000Z,72.85
2023-11-09T22:00:39.794Z,72.67
2023-11-09T22:01:42.553Z,72.92
2023-11-09T22:02:47.304Z,73.18
2023-11-09T22:03:50.365Z,73.30
2023-11-09T22:04:53.222Z,73.53
2023-11-09T22:05:55.950Z,73.65
2023-11-09T22:06:58.777Z,72.99
2023-11-09T22:08:05.766Z,73.04
2023-11-09T22:09:12.779Z,73.93
2023-11-09T22:10:15.891Z,73.78
2023-11-09T22:11:19.390Z,73.59
2023-11-09T22:12:22.577Z,73.74
2023-11-09T22:13:25.453Z,73.83
2023-11-09T22:14:28.650Z,73.45
2023-11-09T22:15:31.776Z,73.88
2023-11-09T22:16:36.979Z,73.26
2023-11-09T22:17:39.826Z,74.03
2023-11-09T22:18:42.657Z,73.34
2023-11-09T22:19:45.444Z,73.17
2023-11-09T22:20:48.205Z,74.09
2023-11-09T22:21:50.916Z,73.90
2023-11-09T22:22:55.316Z,74.23
2023-11-09T22:23:58.103Z,73.43
2023-11-09T22:25:00.828Z,73.86
2023-11-09T22:26:03.607Z,73.71
2023-11-09T22:27:06.366Z,73.39
2023-11-09T22:28:11.529Z,74.28
2023-11-09T22:29:14.997Z,74.31
2023-11-09T22:30:18.745Z,73.57
2023-11-09T22:31:22.747Z,74.43
2023-11-09T22:32:27.057Z,74.56
2023-11-09T22:33:30.122Z,74.25
2023-11-09T22:34:32.987Z,74.72
2023-11-09T22:35:36.136Z,74.64
2023-11-09T22:36:39.330Z,74.64
2023-11-09T22:37:42.095Z,74.80
2023-11-09T22:38:44.835Z,75.12
2023-11-09T22:39:47.576Z,75.06
2023-11-09T22:40:50.430Z,74.44
2023-11-09T22:41:53.179Z,75.30
2023-11-09T22:42:56.019Z,74.95
2023-11-09T22:43:58.970Z,74.85
2023-11-09T22:45:01.735Z,75.54
2023-11-09T22:46:04.599Z,75.39
2023-11-09T22:47:07.383Z,75.07
2023-11-09T22:48:10.162Z,75.55
2023-11-09T22:49:12.919Z,75.65
2023-11-09T22:50:15.735Z,74.90
2023-11-09T22:51:20.752Z,75.03
2023-11-09T22:52:23.551Z,75.26
2023-11-09T22:53:26.333Z,75.64
2023-11-09T22:54:29.125Z,75.96
2023-11-09T22:55:31.904Z,75.38
2023-11-09T22:56:37.522Z,75.44
2023-11-09T22:57:40.310Z,75.58
2023-11-09T22:58:43.066Z,75.52
2023-11-09T22:59:45.831Z,75.37
2023-11-09T23:00:51.704Z,76.31
2023-11-09T23:01:54.645Z,75.72
2023-11-09T23:02:57.499Z,76.14
2023-11-09T23:04:00.446Z,75.43
2023-11-09T23:05:03.289Z,75.82
2023-11-09T23:06:06.110Z,76.13
2023-11-09T23:07:08.852Z,75.85
2023-11-09T23:08:17.762Z,75.86
2023-11-09T23:09:21.952Z,75.42
2023-11-09T23:10:24.710Z,75.76
2023-11-09T23:11:30.848Z,75.68
2023-11-09T23:12:33.657Z,75.81
2023-11-09T23:13:36.441Z,75.52
2023-11-09T23:14:39.181Z,75.97
2023-11-09T23:15:42.392Z,75.82
2023-11-09T23:16:45.325Z,75.46
2023-11-09T23:17:48.163Z,75.48
2023-11-09T23:18:51.058Z,75.99
2023-11-09T23:20:01.152Z,75.98
2023-11-09T23:21:08.157Z,75.93
2023-11-09T23:22:10.955Z,75.73
2023-11-09T23:23:14.672Z,75.56
2023-11-09T23:24:19.185Z,75.54
2023-11-09T23:25:22.156Z,75.49
2023-11-09T23:26:26.222Z,75.18
2023-11-09T23:27:29.317Z,75.74
2023-11-09T23:28:32.192Z,75.35
2023-11-09T23:29:34.934Z,75.47
2023-11-09T23:30:37.769Z,75.53
2023-11-09T23:31:40.554Z,75.70
2023-11-09T23:32:43.425Z,75.38
2023-11-09T23:33:46.282Z,75.86
2023-11-09T23:34:51.683Z,75.76
2023-11-09T23:35:54.414Z,76.32
2023-11-09T23:36:57.146Z,76.29
2023-11-09T23:37:59.861Z,76.31
2023-11-09T23:39:02.602Z,76.09
2023-11-09T23:40:06.720Z,75.95
2023-11-09T23:41:10.083Z,76.59
2023-11-09T23:42:12.884Z,76.39
2023-11-09T23:43:16.063Z,76.34
2023-11-09T23:44:18.787Z,76.50
2023-11-09T23:45:22.556Z,76.43
2023-11-09T23:46:25.383Z,76.09
2023-11-09T23:47:28.252Z,76.11
2023-11-09T23:48:31.087Z,76.17
2023-11-09T23:49:33.886Z,76.46
2023-11-09T23:50:36.627Z,76.28
2023-11-09T23:51:39.591Z,76.82
2023-11-09T23:52:42.579Z,76.17
2023-11-09T23:53:45.298Z,76.48
2023-11-09T23:54:48.031Z,76.70
2023-11-09T23:55:51.509Z,76.44
2023-11-09T23:56:54.638Z,76.73
2023-11-09T23:57:57.387Z,76.74
2023-11-09T23:59:00.149Z,76.21
